Time;durP1;ratioP1;P1;durP2;ratioP2;P2;SDS_P1;SDS_P2;PMS_P1;PMS_P2;Temp;Humidity;BMP_temperature;BMP_pressure;BME280_temperature;BME280_humidity;BME280_pressure;Samples;Min_cycle;Max_cycle;Signal;HPM_P1;HPM_P2
2023/02/22 00:01:18;;;;;;;24.65;15.50;;;205.60;2252.80;;;;;;5071853;28;20100;-65
2023/02/22 00:03:50;;;;;;;154.02;74.55;;;205.20;2252.80;;;;;;5071831;28;20033;-65
2023/02/22 00:06:20;;;;;;;213.67;107.07;;;205.40;2252.80;;;;;;5071711;28;20021;-66
2023/02/22 00:08:48;;;;;;;288.35;136.13;;;205.50;2252.80;;;;;;5071549;28;20265;-65
2023/02/22 00:11:14;;;;;;;197.13;95.57;;;205.50;2252.80;;;;;;5071378;28;20025;-65
2023/02/22 00:13:43;;;;;;;79.03;34.88;;;205.60;2252.80;;;;;;5071492;28;20024;-66
2023/02/22 00:16:16;;;;;;;32.92;21.48;;;205.60;2252.80;;;;;;5071681;28;20095;-67
2023/02/22 00:18:43;;;;;;;19.00;11.18;;;205.50;2252.80;;;;;;5071549;28;20028;-68
2023/02/22 00:21:10;;;;;;;18.55;11.07;;;205.30;2252.80;;;;;;5071698;28;20040;-68
2023/02/22 00:23:39;;;;;;;171.85;89.25;;;205.20;2252.80;;;;;;5071682;28;20174;-66
2023/02/22 00:26:08;;;;;;;62.20;31.88;;;205.40;2252.80;;;;;;5071404;28;20070;-64
2023/02/22 00:28:36;;;;;;;19.73;13.20;;;205.60;2252.80;;;;;;5070700;28;20024;-67
2023/02/22 00:31:04;;;;;;;138.07;73.88;;;205.60;2252.80;;;;;;5070658;28;20025;-67
2023/02/22 00:33:30;;;;;;;106.20;58.45;;;205.70;2252.80;;;;;;5071265;28;20025;-67
2023/02/22 00:35:56;;;;;;;60.60;29.48;;;205.70;2252.80;;;;;;5071018;28;20027;-67
2023/02/22 00:38:22;;;;;;;38.25;22.40;;;205.60;2252.80;;;;;;5071035;28;20386;-70
2023/02/22 00:40:48;;;;;;;102.53;52.05;;;205.70;2252.80;;;;;;5071115;28;20454;-67
2023/02/22 00:43:14;;;;;;;47.88;29.15;;;205.60;2252.80;;;;;;5070618;28;20047;-65
2023/02/22 00:45:40;;;;;;;98.53;54.42;;;205.70;2252.80;;;;;;5044855;28;20403;-66
2023/02/22 00:48:07;;;;;;;151.30;85.20;;;205.70;2252.80;;;;;;5041157;28;20100;-68
2023/02/22 00:50:34;;;;;;;116.28;69.80;;;230.40;2252.80;;;;;;5041408;28;20017;-68
2023/02/22 00:53:02;;;;;;;75.78;45.47;;;230.40;2252.80;;;;;;5040246;28;20097;-67
2023/02/22 00:55:33;;;;;;;71.05;42.13;;;230.40;2252.80;;;;;;5038569;28;20100;-64
2023/02/22 00:58:00;;;;;;;79.95;46.72;;;230.40;2252.80;;;;;;5039549;28;20025;-66
2023/02/22 01:00:26;;;;;;;92.75;53.83;;;230.40;2252.80;;;;;;5040551;28;20028;-69
2023/02/22 01:02:53;;;;;;;57.05;25.42;;;230.40;2252.80;;;;;;5038364;28;20025;-67
2023/02/22 01:05:23;;;;;;;28.92;21.20;;;230.40;2252.80;;;;;;5039360;28;20025;-65
2023/02/22 01:07:49;;;;;;;53.65;34.13;;;230.40;2252.80;;;;;;5040494;28;20057;-69
2023/02/22 01:10:18;;;;;;;42.20;27.35;;;205.40;2252.80;;;;;;5038762;28;20048;-65
2023/02/22 01:12:45;;;;;;;18.92;13.32;;;205.70;2252.80;;;;;;5038378;28;20056;-67
2023/02/22 01:15:11;;;;;;;24.00;14.63;;;230.40;2252.80;;;;;;5040335;28;20025;-65
2023/02/22 01:17:38;;;;;;;14.80;9.30;;;205.70;2252.80;;;;;;5039369;28;20022;-65
2023/02/22 01:20:11;;;;;;;171.60;90.03;;;205.60;2252.80;;;;;;5038386;28;20078;-68
2023/02/22 01:22:39;;;;;;;45.55;29.30;;;205.60;2252.80;;;;;;5017852;28;20513;-67
2023/02/22 01:25:06;;;;;;;90.45;54.05;;;205.60;2252.80;;;;;;5037108;28;20025;-66
2023/02/22 01:27:35;;;;;;;173.07;106.32;;;205.60;2252.80;;;;;;5034517;28;20029;-65
2023/02/22 01:30:07;;;;;;;167.23;95.80;;;205.50;2252.80;;;;;;5039140;28;20043;-66
2023/02/22 01:32:37;;;;;;;83.85;46.13;;;205.40;2252.80;;;;;;5028991;28;20025;-69
2023/02/22 01:35:07;;;;;;;90.45;48.40;;;205.40;2252.80;;;;;;5039556;28;20029;-67
2023/02/22 01:37:35;;;;;;;61.63;36.20;;;205.50;2252.80;;;;;;5034391;28;20035;-68
2023/02/22 01:40:03;;;;;;;58.70;30.35;;;205.50;2252.80;;;;;;5039000;28;20136;-66
2023/02/22 01:42:29;;;;;;;36.58;22.65;;;205.50;2252.80;;;;;;5040938;28;20029;-66
2023/02/22 01:45:29;;;;;;;30.95;20.02;;;205.50;2252.80;;;;;;5049965;28;20051;-66
2023/02/22 01:48:09;;;;;;;22.25;11.52;;;205.30;2252.80;;;;;;5050088;28;20123;-66
2023/02/22 01:50:41;;;;;;;34.75;19.85;;;205.00;2252.80;;;;;;5050236;28;20021;-65
2023/02/22 01:53:08;;;;;;;29.40;17.30;;;205.00;2252.80;;;;;;5050440;28;20037;-65
2023/02/22 01:55:34;;;;;;;31.60;19.35;;;205.00;2252.80;;;;;;5050168;28;20151;-67
2023/02/22 01:58:02;;;;;;;18.33;12.48;;;204.90;2252.80;;;;;;5050244;28;20072;-68
2023/02/22 02:00:29;;;;;;;12.68;8.40;;;205.00;2252.80;;;;;;5050133;28;20025;-68
2023/02/22 02:03:01;;;;;;;14.95;9.07;;;180.10;2252.80;;;;;;5050020;28;20040;-67
2023/02/22 02:05:30;;;;;;;19.85;10.20;;;179.80;2252.80;;;;;;5050364;28;20025;-67
2023/02/22 02:07:58;;;;;;;18.15;11.68;;;179.70;2252.80;;;;;;5050132;28;20481;-66
2023/02/22 02:10:23;;;;;;;13.40;6.88;;;179.70;2252.80;;;;;;5050000;28;20025;-69
2023/02/22 02:12:52;;;;;;;13.52;7.53;;;179.60;2252.80;;;;;;5049975;28;20029;-67
2023/02/22 02:15:28;;;;;;;11.00;7.45;;;179.50;2252.80;;;;;;5049932;28;20025;-68
2023/02/22 02:17:56;;;;;;;11.73;6.60;;;179.50;2252.80;;;;;;5049770;28;20507;-67
2023/02/22 02:20:43;;;;;;;13.73;8.30;;;179.50;2252.80;;;;;;5049851;28;20494;-67
2023/02/22 02:23:34;;;;;;;14.40;8.88;;;179.50;2252.80;;;;;;5050004;28;20035;-69
2023/02/22 02:26:37;;;;;;;24.30;14.75;;;179.40;2252.80;;;;;;5050224;28;20029;-67
2023/02/22 02:29:35;;;;;;;39.15;19.55;;;179.30;2252.80;;;;;;5049780;28;20508;-67
2023/02/22 02:32:43;;;;;;;21.38;12.48;;;179.40;2252.80;;;;;;5049699;28;20029;-66
2023/02/22 02:35:20;;;;;;;12.07;7.15;;;179.30;2252.80;;;;;;5049664;28;20116;-68
2023/02/22 02:37:51;;;;;;;13.88;8.13;;;179.30;2252.80;;;;;;5049976;28;20493;-67
2023/02/22 02:40:17;;;;;;;11.80;7.13;;;179.30;2252.80;;;;;;5049934;28;20029;-67
2023/02/22 02:42:53;;;;;;;48.60;25.70;;;179.40;2252.80;;;;;;5049577;28;20049;-67
2023/02/22 02:45:26;;;;;;;29.90;15.20;;;154.30;2252.80;;;;;;5049740;28;20491;-66
2023/02/22 02:47:59;;;;;;;84.45;47.83;;;179.60;2252.80;;;;;;5049967;28;20036;-67
2023/02/22 02:50:34;;;;;;;47.53;27.35;;;179.80;2252.80;;;;;;5049720;28;20052;-67
2023/02/22 02:53:04;;;;;;;137.25;75.45;;;179.90;2252.80;;;;;;5051174;28;20021;-66
2023/02/22 02:55:31;;;;;;;135.73;74.97;;;179.90;2252.80;;;;;;5053477;28;20103;-67
2023/02/22 02:57:58;;;;;;;129.05;73.35;;;180.00;2252.80;;;;;;5053329;28;20024;-66
2023/02/22 03:00:28;;;;;;;28.40;16.08;;;180.10;2252.80;;;;;;5052998;28;20044;-66
2023/02/22 03:03:12;;;;;;;27.80;13.27;;;204.80;2252.80;;;;;;5053063;28;20510;-64
2023/02/22 03:06:00;;;;;;;51.80;28.00;;;180.10;2252.80;;;;;;5053282;28;20045;-67
2023/02/22 03:08:38;;;;;;;21.20;13.20;;;179.90;2252.80;;;;;;5053332;28;20108;-68
2023/02/22 03:11:23;;;;;;;50.60;26.83;;;180.00;2252.80;;;;;;5052932;28;20029;-67
2023/02/22 03:13:54;;;;;;;41.92;20.48;;;180.00;2252.80;;;;;;5052784;28;20036;-69
2023/02/22 03:16:33;;;;;;;15.60;10.35;;;180.10;2252.80;;;;;;5053109;28;20051;-65
2023/02/22 03:19:33;;;;;;;45.17;26.08;;;180.00;2252.80;;;;;;5053103;28;20024;-66
2023/02/22 03:22:10;;;;;;;82.18;40.67;;;179.80;2252.80;;;;;;5053093;28;20104;-67
2023/02/22 03:24:54;;;;;;;29.02;17.42;;;179.90;2252.80;;;;;;5052975;28;20096;-66
2023/02/22 03:27:33;;;;;;;174.45;90.65;;;179.60;2252.80;;;;;;5054101;28;20032;-68
2023/02/22 03:30:05;;;;;;;35.72;21.67;;;179.60;2252.80;;;;;;5055529;28;20060;-65
2023/02/22 03:32:37;;;;;;;50.28;27.23;;;179.60;2252.80;;;;;;5055832;28;20521;-68
2023/02/22 03:35:12;;;;;;;21.55;12.20;;;179.70;2252.80;;;;;;5054708;28;20017;-67
2023/02/22 03:37:43;;;;;;;13.40;9.02;;;179.70;2252.80;;;;;;5055928;28;20021;-66
2023/02/22 03:40:13;;;;;;;13.82;8.57;;;179.70;2252.80;;;;;;5055728;28;20037;-67
2023/02/22 03:42:44;;;;;;;23.05;11.55;;;179.60;2252.80;;;;;;5055086;28;20041;-66
2023/02/22 03:45:12;;;;;;;18.13;11.32;;;179.40;2252.80;;;;;;5052255;28;20072;-68
2023/02/22 03:47:50;;;;;;;51.80;27.83;;;179.40;2252.80;;;;;;5052295;28;20049;-67
2023/02/22 03:50:20;;;;;;;46.97;24.77;;;179.40;2252.80;;;;;;5052372;28;20100;-67
2023/02/22 03:52:46;;;;;;;14.70;9.05;;;179.40;2252.80;;;;;;5051948;28;20025;-66
2023/02/22 03:55:16;;;;;;;51.60;25.10;;;179.40;2252.80;;;;;;5051996;28;20036;-67
2023/02/22 03:57:49;;;;;;;16.23;9.85;;;179.40;2252.80;;;;;;5052137;28;20032;-66
2023/02/22 04:00:21;;;;;;;20.27;11.13;;;179.20;2252.80;;;;;;5051797;28;20021;-67
2023/02/22 04:02:47;;;;;;;23.00;12.73;;;179.30;2252.80;;;;;;5052272;28;20041;-67
2023/02/22 04:05:13;;;;;;;64.47;30.65;;;179.40;2252.80;;;;;;5051850;28;20066;-67
2023/02/22 04:07:39;;;;;;;53.38;26.75;;;179.40;2252.80;;;;;;5051966;28;20021;-67
2023/02/22 04:10:07;;;;;;;60.25;31.70;;;179.40;2252.80;;;;;;5051892;28;20021;-67
2023/02/22 04:12:34;;;;;;;107.53;59.05;;;179.40;2252.80;;;;;;5051605;28;20371;-67
2023/02/22 04:15:00;;;;;;;91.85;49.40;;;179.40;2252.80;;;;;;5051771;28;20091;-66
2023/02/22 04:17:26;;;;;;;63.05;34.13;;;179.40;2252.80;;;;;;5069188;28;20112;-67
2023/02/22 04:19:52;;;;;;;62.40;36.20;;;179.40;2252.80;;;;;;5071492;28;20115;-67
2023/02/22 04:22:18;;;;;;;70.72;46.25;;;179.40;2252.80;;;;;;5071730;28;20035;-68
2023/02/22 04:24:44;;;;;;;83.72;51.45;;;179.50;2252.80;;;;;;5071374;28;20527;-69
2023/02/22 04:27:10;;;;;;;49.97;31.70;;;179.60;2252.80;;;;;;5071542;28;20481;-67
2023/02/22 04:29:35;;;;;;;41.35;27.92;;;179.60;2252.80;;;;;;5071132;28;20028;-69
2023/02/22 04:32:01;;;;;;;26.02;17.15;;;179.60;2252.80;;;;;;5071360;28;20092;-67
2023/02/22 04:34:27;;;;;;;22.67;14.77;;;179.60;2252.80;;;;;;5071527;28;20531;-69
2023/02/22 04:36:53;;;;;;;13.88;8.60;;;179.50;2252.80;;;;;;5071254;28;20017;-68
2023/02/22 04:39:18;;;;;;;13.57;8.98;;;179.20;2252.80;;;;;;5071423;28;20416;-69
2023/02/22 04:41:44;;;;;;;12.60;9.18;;;154.40;2252.80;;;;;;5071079;28;20029;-68
2023/02/22 04:44:12;;;;;;;21.23;13.23;;;154.20;2252.80;;;;;;5070886;28;20044;-68
2023/02/22 04:46:38;;;;;;;22.02;12.27;;;154.20;2252.80;;;;;;5071049;28;20413;-67
2023/02/22 04:49:03;;;;;;;12.43;7.85;;;154.20;2252.80;;;;;;5070850;28;20032;-66
2023/02/22 04:51:29;;;;;;;14.48;8.63;;;154.20;2252.80;;;;;;5071434;28;20024;-65
2023/02/22 04:53:55;;;;;;;10.68;7.50;;;154.20;2252.80;;;;;;5071190;28;20385;-67
2023/02/22 04:56:21;;;;;;;11.13;7.15;;;154.20;2252.80;;;;;;5070739;28;20382;-66
2023/02/22 04:58:46;;;;;;;12.43;7.53;;;154.20;2252.80;;;;;;5071038;28;20111;-65
2023/02/22 05:01:15;;;;;;;11.48;6.93;;;154.20;2252.80;;;;;;5070925;28;20612;-66
2023/02/22 05:03:41;;;;;;;19.08;12.65;;;154.20;2252.80;;;;;;5071157;28;20111;-69
2023/02/22 05:06:07;;;;;;;15.07;9.23;;;154.10;2252.80;;;;;;5071005;28;20020;-68
2023/02/22 05:08:32;;;;;;;14.15;9.93;;;154.10;2252.80;;;;;;5052501;28;20035;-67
2023/02/22 05:10:58;;;;;;;13.75;8.48;;;154.00;2252.80;;;;;;5070947;28;20052;-67
2023/02/22 05:13:25;;;;;;;14.05;9.45;;;154.00;2252.80;;;;;;5070488;28;20490;-68
2023/02/22 05:15:51;;;;;;;13.43;8.93;;;154.00;2252.80;;;;;;5070171;28;20040;-68
2023/02/22 05:18:16;;;;;;;20.05;10.40;;;154.10;2252.80;;;;;;5070617;28;20025;-67
2023/02/22 05:20:42;;;;;;;39.97;24.17;;;154.10;2252.80;;;;;;5070746;28;20031;-66
2023/02/22 05:23:08;;;;;;;17.08;11.68;;;154.10;2252.80;;;;;;5070846;28;20115;-66
2023/02/22 05:25:33;;;;;;;28.95;13.95;;;154.10;2252.80;;;;;;5070630;28;20455;-68
2023/02/22 05:28:03;;;;;;;63.83;35.25;;;154.30;2252.80;;;;;;5070667;28;20111;-67
2023/02/22 05:30:32;;;;;;;69.53;42.13;;;154.50;2252.80;;;;;;5070252;28;20463;-67
2023/02/22 05:32:59;;;;;;;103.15;60.63;;;179.20;2252.80;;;;;;5070508;28;20028;-66
2023/02/22 05:35:26;;;;;;;84.88;50.78;;;179.30;2252.80;;;;;;5070417;28;20021;-68
2023/02/22 05:37:52;;;;;;;61.28;32.67;;;179.40;2252.80;;;;;;5070366;28;20025;-67
2023/02/22 05:40:22;;;;;;;68.00;40.28;;;179.40;2252.80;;;;;;5070511;28;20406;-67
2023/02/22 05:42:49;;;;;;;92.72;53.75;;;179.60;2252.80;;;;;;5070375;28;20027;-66
2023/02/22 05:45:18;;;;;;;26.27;15.90;;;179.70;2252.80;;;;;;5069976;28;20135;-65
2023/02/22 05:47:44;;;;;;;20.90;15.75;;;179.70;2252.80;;;;;;5070159;28;20032;-67
2023/02/22 05:50:10;;;;;;;17.35;10.10;;;179.60;2252.80;;;;;;5070406;28;20029;-64
2023/02/22 05:52:37;;;;;;;17.80;10.20;;;179.60;2252.80;;;;;;5070339;28;20031;-69
2023/02/22 05:55:04;;;;;;;15.93;10.73;;;179.50;2252.80;;;;;;5070350;28;20055;-70
2023/02/22 05:57:30;;;;;;;15.38;11.32;;;179.50;2252.80;;;;;;5070372;28;20033;-68
2023/02/22 05:59:56;;;;;;;18.27;11.48;;;179.60;2252.80;;;;;;5070165;28;20092;-69
2023/02/22 06:02:22;;;;;;;29.63;19.98;;;179.70;2252.80;;;;;;5070100;28;20023;-69
2023/02/22 06:04:47;;;;;;;19.77;13.18;;;179.60;2252.80;;;;;;5070456;28;20029;-70
2023/02/22 06:07:14;;;;;;;22.92;13.25;;;179.60;2252.80;;;;;;5070336;28;20469;-67
2023/02/22 06:09:40;;;;;;;28.67;20.30;;;179.80;2252.80;;;;;;5070279;28;20471;-67
2023/02/22 06:12:07;;;;;;;21.02;12.40;;;179.90;2252.80;;;;;;5070101;28;20066;-68
2023/02/22 06:14:32;;;;;;;19.42;11.98;;;179.80;2252.80;;;;;;5069559;28;20410;-70
2023/02/22 06:16:59;;;;;;;19.23;11.20;;;179.70;2252.80;;;;;;5051627;28;20040;-66
2023/02/22 06:19:26;;;;;;;16.52;11.60;;;179.80;2252.80;;;;;;5070223;28;20039;-69
2023/02/22 06:21:54;;;;;;;20.08;11.10;;;180.00;2252.80;;;;;;5070038;28;20017;-69
2023/02/22 06:24:21;;;;;;;14.77;11.23;;;180.00;2252.80;;;;;;5070086;28;20036;-67
2023/02/22 06:27:00;;;;;;;22.83;13.45;;;180.10;2252.80;;;;;;5070164;28;20056;-69
2023/02/22 06:29:27;;;;;;;66.53;39.70;;;204.90;2252.80;;;;;;5073909;28;20565;-67
2023/02/22 06:31:54;;;;;;;29.40;17.48;;;205.00;2252.80;;;;;;5073514;28;20462;-67
2023/02/22 06:34:21;;;;;;;19.10;12.07;;;205.10;2252.80;;;;;;5073909;28;20032;-65
2023/02/22 06:36:47;;;;;;;18.25;12.52;;;205.10;2252.80;;;;;;5073734;28;20059;-66
2023/02/22 06:39:14;;;;;;;39.83;28.58;;;205.20;2252.80;;;;;;5073575;28;20466;-69
2023/02/22 06:41:41;;;;;;;47.25;31.33;;;205.40;2252.80;;;;;;5073559;28;20027;-69
2023/02/22 06:44:09;;;;;;;21.73;15.68;;;205.40;2252.80;;;;;;5073502;28;20060;-68
2023/02/22 06:46:35;;;;;;;27.02;15.48;;;205.50;2252.80;;;;;;5073101;28;20049;-67
2023/02/22 06:49:01;;;;;;;18.73;12.63;;;205.70;2252.80;;;;;;5073563;28;20024;-68
2023/02/22 06:51:27;;;;;;;16.00;11.27;;;230.90;2252.80;;;;;;5073397;28;20028;-67
2023/02/22 06:53:53;;;;;;;15.93;12.77;;;231.20;2252.80;;;;;;5073439;28;20052;-64
2023/02/22 06:56:19;;;;;;;22.17;14.30;;;231.00;2252.80;;;;;;5073489;28;20083;-67
2023/02/22 06:58:45;;;;;;;20.02;13.75;;;231.00;2252.80;;;;;;5073250;28;20021;-65
2023/02/22 07:01:11;;;;;;;18.90;13.35;;;231.00;2252.80;;;;;;5073379;28;20467;-69
2023/02/22 07:03:37;;;;;;;21.38;13.60;;;231.00;2252.80;;;;;;5073347;28;20398;-65
2023/02/22 07:06:03;;;;;;;18.15;11.88;;;231.10;2252.80;;;;;;5073219;28;20096;-67
2023/02/22 07:08:29;;;;;;;17.88;12.93;;;231.20;2252.80;;;;;;5073343;28;20027;-70
2023/02/22 07:10:55;;;;;;;25.33;15.50;;;231.20;2252.80;;;;;;5073044;28;20428;-67
2023/02/22 07:13:21;;;;;;;21.52;14.80;;;231.20;2252.80;;;;;;5072973;28;20032;-69
2023/02/22 07:15:47;;;;;;;22.52;16.08;;;231.30;2252.80;;;;;;5072974;28;20077;-66
2023/02/22 07:18:14;;;;;;;23.48;14.77;;;231.30;2252.80;;;;;;5072970;28;20051;-66
2023/02/22 07:20:41;;;;;;;19.38;14.48;;;256.00;2252.80;;;;;;5073269;28;20012;-64
2023/02/22 07:23:07;;;;;;;28.42;16.92;;;231.30;2252.80;;;;;;5073113;28;20037;-66
2023/02/22 07:25:33;;;;;;;24.05;15.25;;;256.00;2252.80;;;;;;5072845;28;20074;-66
2023/02/22 07:28:00;;;;;;;29.80;19.90;;;256.10;2252.80;;;;;;5072726;28;20032;-70
2023/02/22 07:30:32;;;;;;;23.17;17.15;;;256.20;2252.80;;;;;;5072526;28;20055;-64
2023/02/22 07:33:00;;;;;;;25.85;19.10;;;256.50;2252.80;;;;;;5072677;28;20025;-62
2023/02/22 07:35:29;;;;;;;25.75;15.65;;;256.70;2252.80;;;;;;5072425;28;20024;-63
2023/02/22 07:37:55;;;;;;;20.67;14.15;;;281.80;2278.40;;;;;;5072162;28;20028;-63
2023/02/22 07:40:21;;;;;;;20.33;14.88;;;307.70;2304.00;;;;;;5072671;28;20169;-64
2023/02/22 07:42:50;;;;;;;27.73;15.82;;;358.90;2304.00;;;;;;5072243;28;20039;-62
2023/02/22 07:45:17;;;;;;;27.50;16.60;;;409.90;2073.60;;;;;;5071983;28;20058;-65
2023/02/22 07:47:43;;;;;;;20.35;15.18;;;436.10;1920.00;;;;;;5072014;28;20490;-66
2023/02/22 07:50:08;;;;;;;22.13;15.95;;;486.40;1817.60;;;;;;5068865;28;20107;-63
2023/02/22 07:52:34;;;;;;;23.15;18.10;;;487.00;1715.20;;;;;;5034014;28;20021;-66
2023/02/22 07:54:59;;;;;;;57.17;48.60;;;512.50;1664.00;;;;;;5036294;28;20033;-65
2023/02/22 07:57:25;;;;;;;34.70;25.42;;;537.90;1612.80;;;;;;5046125;28;20021;-66
2023/02/22 07:59:51;;;;;;;38.83;31.75;;;563.60;1561.60;;;;;;5052361;28;20120;-66
2023/02/22 08:02:24;;;;;;;48.58;42.72;;;564.00;1510.40;;;;;;5052308;28;20475;-65
2023/02/22 08:04:50;;;;;;;;;;;589.20;1484.80;;;;;;5052318;28;20107;-64
2023/02/22 08:07:15;;;;;;;27.73;24.63;;;614.60;1433.60;;;;;;5051946;28;20003;-65
2023/02/22 08:09:41;;;;;;;31.45;23.85;;;614.50;1408.00;;;;;;5051978;28;20476;-64
2023/02/22 08:12:07;;;;;;;27.40;24.50;;;640.10;1356.80;;;;;;5034052;28;20033;-65
2023/02/22 08:14:33;;;;;;;31.38;28.08;;;640.90;1331.20;;;;;;5048063;28;20090;-67
2023/02/22 08:16:58;;;;;;;42.53;35.40;;;665.70;1305.60;;;;;;5044567;28;20025;-67
2023/02/22 08:19:24;;;;;;;63.60;56.63;;;666.50;1305.60;;;;;;5031504;28;20075;-64
2023/02/22 08:21:50;;;;;;;60.83;48.88;;;666.50;1254.40;;;;;;5031502;28;20040;-67
2023/02/22 08:24:15;;;;;;;76.15;65.05;;;666.10;1305.60;;;;;;5031452;28;20121;-66
2023/02/22 08:26:47;;;;;;;78.15;69.70;;;640.00;1331.20;;;;;;5031763;28;20025;-68
2023/02/22 08:29:15;;;;;;;73.40;63.90;;;640.90;1305.60;;;;;;5031567;28;20072;-63
2023/02/22 08:31:41;;;;;;;87.80;75.05;;;614.60;1382.40;;;;;;5031554;28;20457;-66
2023/02/22 08:34:07;;;;;;;79.72;66.10;;;615.00;1382.40;;;;;;5031656;28;20032;-68
2023/02/22 08:36:33;;;;;;;77.00;64.25;;;640.70;1305.60;;;;;;5031633;28;20045;-68
2023/02/22 08:38:59;;;;;;;69.22;61.65;;;614.70;1408.00;;;;;;5031354;28;20025;-66
2023/02/22 08:41:24;;;;;;;71.15;61.15;;;589.60;1433.60;;;;;;5030989;28;20116;-68
2023/02/22 08:43:50;;;;;;;72.80;57.92;;;615.00;1382.40;;;;;;5033230;28;20037;-62
2023/02/22 08:46:16;;;;;;;68.65;57.53;;;615.30;1356.80;;;;;;5034913;28;20107;-65
2023/02/22 08:48:52;;;;;;;64.50;54.38;;;640.70;1331.20;;;;;;5040767;28;20025;-66
2023/02/22 08:51:19;;;;;;;61.67;54.63;;;666.20;1305.60;;;;;;5039607;28;20033;-65
2023/02/22 08:53:44;;;;;;;61.70;52.03;;;691.20;1280.00;;;;;;5036134;28;20017;-65
2023/02/22 08:56:10;;;;;;;59.92;50.30;;;691.60;1254.40;;;;;;5036034;28;20475;-69
2023/02/22 08:58:36;;;;;;;57.47;48.10;;;717.10;1228.80;;;;;;5041165;28;20502;-67
2023/02/22 09:01:02;;;;;;;54.08;48.38;;;717.60;1177.60;;;;;;5040035;28;20032;-65
2023/02/22 09:03:28;;;;;;;53.25;44.20;;;742.90;1177.60;;;;;;5036466;28;20037;-68
2023/02/22 09:05:53;;;;;;;48.58;41.85;;;717.10;1203.20;;;;;;5041137;28;20067;-67
2023/02/22 09:08:20;;;;;;;39.00;34.28;;;742.90;1177.60;;;;;;5039914;28;20099;-66
2023/02/22 09:10:45;;;;;;;28.00;25.17;;;743.30;1152.00;;;;;;5040688;28;20021;-68
2023/02/22 09:13:12;;;;;;;31.23;28.05;;;716.80;1203.20;;;;;;5040241;28;20140;-64
2023/02/22 09:15:38;;;;;;;39.15;33.92;;;666.40;1254.40;;;;;;5038547;28;20566;-67
2023/02/22 09:18:09;;;;;;;37.42;33.55;;;691.40;1228.80;;;;;;5038591;28;20112;-61
2023/02/22 09:20:35;;;;;;;37.30;28.83;;;691.60;1228.80;;;;;;5029236;28;20017;-67
2023/02/22 09:23:02;;;;;;;36.58;30.83;;;691.40;1228.80;;;;;;5039191;28;20037;-63
2023/02/22 09:25:28;;;;;;;31.45;28.08;;;717.00;1203.20;;;;;;5038616;28;20056;-65
2023/02/22 09:27:55;;;;;;;31.02;27.90;;;691.70;1203.20;;;;;;5040190;28;20048;-66
2023/02/22 09:30:26;;;;;;;35.35;27.98;;;692.00;1203.20;;;;;;5038985;28;20029;-62
2023/02/22 09:32:54;;;;;;;33.95;30.33;;;716.80;1228.80;;;;;;5037924;28;20025;-66
2023/02/22 09:35:25;;;;;;;31.38;25.92;;;691.40;1228.80;;;;;;5039477;28;20211;-66
2023/02/22 09:37:55;;;;;;;36.17;30.58;;;640.00;1305.60;;;;;;5042884;28;20105;-64
2023/02/22 09:40:28;;;;;;;27.40;22.42;;;589.70;1382.40;;;;;;5041604;28;20025;-65
2023/02/22 09:43:12;;;;;;;;;;;563.60;1459.20;;;;;;5032087;28;20552;-67
2023/02/22 09:46:10;;;;;;;21.17;18.85;;;537.90;1510.40;;;;;;5038945;28;20426;-64
2023/02/22 09:49:00;;;;;;;31.85;24.35;;;538.20;1484.80;;;;;;4946888;29;20047;-64
2023/02/22 09:51:40;;;;;;;16.85;14.13;;;537.70;1510.40;;;;;;4921021;29;20048;-66
2023/02/22 09:54:16;;;;;;;27.42;19.67;;;512.40;1536.00;;;;;;4920078;29;20025;-65
2023/02/22 09:56:45;;;;;;;17.80;12.45;;;487.10;1587.20;;;;;;4919157;29;20042;-65
2023/02/22 09:59:17;;;;;;;25.63;16.17;;;487.00;1587.20;;;;;;4917364;29;20036;-63
2023/02/22 10:01:50;;;;;;;16.10;8.77;;;486.80;1612.80;;;;;;4918120;29;20042;-67
2023/02/22 10:04:18;;;;;;;14.18;9.80;;;461.50;1612.80;;;;;;4920591;29;20377;-60
2023/02/22 10:07:05;;;;;;;12.10;7.65;;;486.40;1612.80;;;;;;4921216;29;20036;-66
2023/02/22 10:09:36;;;;;;;20.23;10.20;;;486.70;1587.20;;;;;;4918447;29;20033;-67
2023/02/22 10:12:22;;;;;;;13.18;6.88;;;461.50;1638.40;;;;;;4920777;29;20036;-64
2023/02/22 10:15:06;;;;;;;14.00;6.70;;;461.40;1638.40;;;;;;4924281;29;20044;-65
2023/02/22 10:18:02;;;;;;;16.70;11.48;;;461.50;1638.40;;;;;;4924678;29;20486;-66
2023/02/22 10:20:37;;;;;;;12.45;8.57;;;461.60;1638.40;;;;;;4919353;29;20426;-64
2023/02/22 10:23:10;;;;;;;13.20;9.10;;;461.50;1638.40;;;;;;4919247;29;20071;-64
2023/02/22 10:25:37;;;;;;;22.50;10.02;;;486.40;1612.80;;;;;;4951544;28;20061;-65
2023/02/22 10:28:23;;;;;;;12.98;7.70;;;486.50;1612.80;;;;;;4998418;28;20693;-62
2023/02/22 10:31:07;;;;;;;13.77;8.88;;;461.30;1664.00;;;;;;5037623;28;20067;-67
2023/02/22 10:33:41;;;;;;;11.90;8.38;;;461.20;1664.00;;;;;;5037982;28;20036;-64
2023/02/22 10:36:18;;;;;;;16.08;10.18;;;461.30;1664.00;;;;;;5040514;28;20027;-66
2023/02/22 10:38:56;;;;;;;10.57;7.97;;;461.30;1664.00;;;;;;5040695;28;20048;-65
2023/02/22 10:41:31;;;;;;;13.20;8.65;;;460.80;1689.60;;;;;;5042372;28;20036;-64
2023/02/22 10:43:58;;;;;;;15.52;10.13;;;461.10;1664.00;;;;;;5045283;28;20088;-67
2023/02/22 10:46:27;;;;;;;12.02;7.88;;;461.40;1664.00;;;;;;5040975;28;20049;-62
2023/02/22 10:48:59;;;;;;;13.38;9.75;;;461.40;1664.00;;;;;;5040240;28;20033;-66
2023/02/22 10:51:24;;;;;;;22.83;16.38;;;461.20;1689.60;;;;;;5042508;28;20125;-68
2023/02/22 10:54:05;;;;;;;13.93;9.68;;;461.20;1689.60;;;;;;5040233;28;20104;-67
2023/02/22 10:56:31;;;;;;;27.77;12.40;;;461.30;1664.00;;;;;;5040542;28;20027;-68
2023/02/22 10:59:03;;;;;;;34.67;14.52;;;461.20;1689.60;;;;;;5041591;28;20468;-66
2023/02/22 11:01:31;;;;;;;18.02;13.18;;;461.40;1689.60;;;;;;5023132;28;20445;-68
2023/02/22 11:04:20;;;;;;;16.38;11.00;;;461.50;1664.00;;;;;;5041264;28;20037;-67
2023/02/22 11:06:48;;;;;;;13.85;9.05;;;461.20;1689.60;;;;;;5044000;28;20029;-68
2023/02/22 11:09:14;;;;;;;16.65;12.38;;;461.40;1689.60;;;;;;5039330;28;20083;-66
2023/02/22 11:11:45;;;;;;;17.42;9.50;;;461.40;1689.60;;;;;;5041477;28;20025;-61
2023/02/22 11:14:38;;;;;;;19.30;13.85;;;461.30;1689.60;;;;;;5040394;28;20083;-66
2023/02/22 11:17:07;;;;;;;15.40;10.63;;;461.30;1689.60;;;;;;5036018;28;20032;-65
2023/02/22 11:19:35;;;;;;;24.50;11.93;;;461.20;1689.60;;;;;;5040168;28;20107;-66
2023/02/22 11:22:24;;;;;;;17.02;12.35;;;461.00;1715.20;;;;;;5053034;28;20091;-64
2023/02/22 11:24:54;;;;;;;21.13;15.95;;;461.30;1715.20;;;;;;5052513;28;20037;-66
2023/02/22 11:27:40;;;;;;;22.45;12.00;;;461.10;1715.20;;;;;;5052660;28;20032;-65
2023/02/22 11:30:20;;;;;;;18.17;11.07;;;460.90;1715.20;;;;;;5052489;28;20029;-62
2023/02/22 11:32:54;;;;;;;15.05;11.23;;;460.80;1715.20;;;;;;5052230;28;20104;-66
2023/02/22 11:35:36;;;;;;;16.55;11.15;;;460.90;1715.20;;;;;;5052415;28;20043;-65
2023/02/22 11:38:19;;;;;;;18.60;11.15;;;460.90;1715.20;;;;;;5052206;28;20028;-65
2023/02/22 11:40:46;;;;;;;16.00;9.77;;;460.90;1715.20;;;;;;5052227;28;20112;-65
2023/02/22 11:43:17;;;;;;;15.23;9.38;;;460.80;1715.20;;;;;;5052019;28;20041;-63
2023/02/22 11:46:19;;;;;;;20.10;12.45;;;461.00;1715.20;;;;;;5052125;28;20041;-65
2023/02/22 11:49:04;;;;;;;16.63;9.82;;;461.00;1740.80;;;;;;4952059;29;20043;-66
2023/02/22 11:51:52;;;;;;;15.98;10.85;;;461.00;1715.20;;;;;;4952248;29;20118;-65
2023/02/22 11:54:42;;;;;;;15.77;10.77;;;460.80;1715.20;;;;;;4952073;29;20027;-66
2023/02/22 11:57:29;;;;;;;20.55;10.73;;;436.10;1715.20;;;;;;4952029;29;20066;-66
2023/02/22 12:00:27;;;;;;;17.13;10.55;;;460.90;1740.80;;;;;;4951867;29;20023;-65
2023/02/22 12:03:13;;;;;;;11.27;8.73;;;460.90;1740.80;;;;;;4951007;29;20090;-66
2023/02/22 12:05:45;;;;;;;11.43;8.93;;;460.80;1715.20;;;;;;4951768;29;20117;-66
2023/02/22 12:08:30;;;;;;;12.82;9.50;;;460.80;1715.20;;;;;;4952066;29;20458;-65
2023/02/22 12:11:11;;;;;;;20.65;14.18;;;460.90;1715.20;;;;;;4951752;29;20118;-64
2023/02/22 12:13:51;;;;;;;17.42;10.55;;;461.00;1715.20;;;;;;4951780;29;20490;-66
2023/02/22 12:16:21;;;;;;;22.02;14.32;;;460.90;1740.80;;;;;;4951753;29;20151;-67
2023/02/22 12:19:11;;;;;;;14.82;9.20;;;461.10;1715.20;;;;;;4951652;29;20454;-64